Kotzebue, AK

9:22 PM AKST on January 25, 2015 (GMT -0900)
Wien Memorial | Change Station
CLOSE
Current Station
Airport
Location: Kotzebue,
Elevation: 16 ft
Nearby Weather Stations

Elev 16 ft 66.88 °N, 162.60 °W | Updated 29 minutes ago

Clear
Clear
-23 °F
Feels Like -39 °F
N
6
Wind Variable Wind from ENE

Today
High -- | Low -- °F
--% Chance of Precip.
Yesterday
High -- | Low -- °F
Precip. -- in
11:21 AM 4:45 PM
Waxing Crescent, 40% visible
Pressure 30.23 in
Visibility 10.0 miles
Clouds Clear
Windchill -39 °F
Dew Point -29 °F
Humidity 74%
Rainfall 0.00 in
Snow Depth Not available.
UV 0 out of 12
Pollen Not available.
Air Quality Not available.
Flu Activity Not available.
METAR PAOT 260553Z 07005KT 10SM CLR M31/M34 A3023 RMK AO2 SLP237 T13061339 11261 21311 51012

More Conditions Fewer Conditions

Pressure 30.23 in
Visibility 10.0 miles
Clouds Clear
Windchill -39 °F
Dew Point -29 °F
Humidity 74%
Rainfall 0.00 in
Snow Depth Not available.
UV 0 out of 12
Pollen Not available.
Air Quality Not available.
Flu Activity Not available.
METAR PAOT 260553Z 07005KT 10SM CLR M31/M34 A3023 RMK AO2 SLP237 T13061339 11261 21311 51012

More Conditions Fewer Conditions

10-Day Weather Forecast

Almanac

Astronomy

Jan. 25, 2015 Rise Set
Actual Time
Civil Twilight
Nautical Twilight
Astronomical Twilight
Moon
Length of Visible Light
Length of Day
Tomorrow will be .
, % of the Moon is Illuminated

Today's Extremes

State Highs State Lows

Community

WunderPhotos

Upload Photos

1,790,157 photos uploaded!

WunderBlogs® & News

Nearby

Air Quality

  Air Quality AQ Index Pollutant
Not available.

Snow Depth

Station Depth Elevation

Earthquake Activity

City Distance Mag. Time & Date
Minimum magnitude displayed is 2.5.

Coastal Water Temperatures

Place Temperature

Nearby Weather Stations